createdAt,value
2022-12-29T00:01:12.512Z,57.22
2022-12-29T00:03:41.049Z,57.20
2022-12-29T00:06:09.378Z,57.00
2022-12-29T00:08:43.363Z,56.98
2022-12-29T00:11:14.075Z,56.99
2022-12-29T00:14:08.717Z,57.08
2022-12-29T00:16:39.841Z,57.04
2022-12-29T00:19:28.025Z,57.16
2022-12-29T00:22:14.722Z,56.70
2022-12-29T00:25:00.302Z,56.94
2022-12-29T00:27:47.249Z,56.80
2022-12-29T00:30:36.195Z,56.82
2022-12-29T00:33:30.350Z,56.96
2022-12-29T00:36:02.704Z,56.34
2022-12-29T00:38:51.193Z,56.57
2022-12-29T00:41:37.246Z,56.75
2022-12-29T00:44:11.308Z,56.67
2022-12-29T00:46:41.104Z,57.18
2022-12-29T00:49:30.203Z,57.08
2022-12-29T00:52:01.163Z,56.91
2022-12-29T00:54:31.037Z,57.01
2022-12-29T00:56:59.157Z,57.03
2022-12-29T00:59:28.018Z,56.71
2022-12-29T01:01:59.192Z,56.45
2022-12-29T01:04:28.988Z,56.63
2022-12-29T01:06:57.302Z,56.43
2022-12-29T01:09:43.492Z,56.62
2022-12-29T01:12:12.588Z,56.43
2022-12-29T01:14:41.303Z,56.47
2022-12-29T01:17:09.640Z,56.49
2022-12-29T01:19:39.408Z,56.34
2022-12-29T01:22:07.581Z,56.03
2022-12-29T01:24:35.641Z,56.27
2022-12-29T01:27:04.030Z,55.91
2022-12-29T01:29:32.155Z,56.40
2022-12-29T01:32:03.298Z,56.42
2022-12-29T01:34:32.300Z,56.59
2022-12-29T01:37:02.028Z,57.14
2022-12-29T01:39:30.218Z,56.84
2022-12-29T01:41:58.737Z,56.61
2022-12-29T01:44:50.703Z,56.76
2022-12-29T01:47:27.335Z,56.22
2022-12-29T01:49:57.964Z,56.63
2022-12-29T01:52:32.285Z,56.93
2022-12-29T01:55:01.998Z,56.62
2022-12-29T01:57:35.212Z,56.84
2022-12-29T02:00:09.304Z,56.82
2022-12-29T02:02:42.220Z,56.69
2022-12-29T02:05:17.995Z,56.54
2022-12-29T02:07:49.843Z,56.41
2022-12-29T02:10:21.144Z,56.48
2022-12-29T02:12:49.902Z,56.48
2022-12-29T02:15:19.268Z,56.78
2022-12-29T02:18:05.091Z,56.88
2022-12-29T02:21:03.918Z,56.92
2022-12-29T02:24:08.142Z,57.08
2022-12-29T02:26:54.824Z,56.87
2022-12-29T02:29:44.988Z,57.46
2022-12-29T02:32:25.076Z,57.76
2022-12-29T02:35:03.655Z,57.52
2022-12-29T02:37:41.735Z,57.64
2022-12-29T02:40:20.952Z,57.98
2022-12-29T02:42:53.908Z,58.43
2022-12-29T02:45:27.087Z,58.21
2022-12-29T02:48:03.789Z,57.88
2022-12-29T02:50:37.054Z,57.91
2022-12-29T02:53:09.834Z,57.75
2022-12-29T02:55:37.087Z,57.88
2022-12-29T02:58:19.934Z,57.80
2022-12-29T03:01:15.432Z,57.53
2022-12-29T03:03:56.015Z,57.61
2022-12-29T03:06:34.898Z,57.39
2022-12-29T03:09:18.322Z,57.64
2022-12-29T03:12:10.376Z,57.83
2022-12-29T03:15:09.182Z,57.62
2022-12-29T03:17:47.254Z,57.72
2022-12-29T03:20:22.481Z,57.96
2022-12-29T03:22:57.465Z,57.84
2022-12-29T03:25:30.592Z,57.94
2022-12-29T03:28:03.041Z,57.48
2022-12-29T03:30:36.438Z,57.79
2022-12-29T03:33:07.404Z,57.72
2022-12-29T03:35:39.484Z,57.76
2022-12-29T03:38:14.536Z,57.69
2022-12-29T03:40:46.381Z,58.10
2022-12-29T03:43:15.278Z,57.95
2022-12-29T03:45:43.886Z,58.16
2022-12-29T03:48:11.938Z,58.49
2022-12-29T03:50:41.707Z,58.51
2022-12-29T03:53:09.934Z,58.68
2022-12-29T03:55:39.674Z,58.37
2022-12-29T03:58:07.917Z,58.48
2022-12-29T04:00:36.871Z,58.26
2022-12-29T04:03:05.383Z,58.07
2022-12-29T04:05:33.662Z,58.20
2022-12-29T04:08:02.983Z,58.61
2022-12-29T04:10:31.424Z,58.50
2022-12-29T04:12:59.776Z,58.19
2022-12-29T04:15:28.204Z,57.64
2022-12-29T04:17:56.747Z,57.52
2022-12-29T04:20:48.356Z,57.90
2022-12-29T04:23:18.271Z,57.61
2022-12-29T04:25:47.793Z,57.55
2022-12-29T04:28:16.596Z,57.92
2022-12-29T04:30:48.308Z,57.50
2022-12-29T04:33:17.016Z,57.45
2022-12-29T04:35:47.479Z,57.66
2022-12-29T04:38:16.502Z,57.53
2022-12-29T04:40:47.490Z,57.40
2022-12-29T04:43:16.902Z,57.35
2022-12-29T04:45:49.210Z,57.48
2022-12-29T04:48:18.075Z,57.32
2022-12-29T04:50:50.450Z,57.60
2022-12-29T04:53:19.366Z,57.11
2022-12-29T04:55:52.371Z,57.20
2022-12-29T04:58:22.993Z,57.16
2022-12-29T05:00:52.732Z,57.87
2022-12-29T05:03:22.707Z,57.63
2022-12-29T05:05:51.216Z,57.60
2022-12-29T05:08:24.665Z,57.96
2022-12-29T05:10:57.439Z,57.98
2022-12-29T05:13:25.708Z,58.12
2022-12-29T05:15:55.074Z,58.18
2022-12-29T05:18:23.449Z,57.97
2022-12-29T05:20:51.820Z,58.00
2022-12-29T05:23:20.306Z,58.24
2022-12-29T05:25:50.957Z,58.25
2022-12-29T05:28:20.780Z,58.17
2022-12-29T05:30:50.909Z,58.03
2022-12-29T05:33:19.618Z,58.24
2022-12-29T05:35:49.316Z,58.07
2022-12-29T05:38:17.389Z,58.20
2022-12-29T05:40:47.489Z,58.23
2022-12-29T05:43:16.629Z,58.62
2022-12-29T05:45:50.499Z,58.39
2022-12-29T05:48:19.951Z,58.52
2022-12-29T05:50:49.627Z,58.22
2022-12-29T05:53:18.162Z,58.68
2022-12-29T05:55:49.050Z,58.67
2022-12-29T05:58:18.990Z,58.92
2022-12-29T06:00:50.145Z,59.16
2022-12-29T06:03:18.657Z,58.77
2022-12-29T06:05:47.093Z,58.87
2022-12-29T06:08:16.560Z,59.10
2022-12-29T06:10:45.031Z,58.90
2022-12-29T06:13:13.186Z,59.46
2022-12-29T06:15:41.598Z,59.02
2022-12-29T06:18:16.457Z,58.90
2022-12-29T06:20:47.748Z,58.90
2022-12-29T06:23:19.407Z,59.08
2022-12-29T06:25:49.564Z,59.04
2022-12-29T06:28:18.633Z,58.89
2022-12-29T06:30:50.016Z,59.09
2022-12-29T06:33:21.834Z,59.03
2022-12-29T06:35:50.678Z,58.96
2022-12-29T06:38:18.893Z,59.06
2022-12-29T06:40:47.429Z,59.08
2022-12-29T06:43:17.837Z,59.24
2022-12-29T06:45:46.753Z,59.24
2022-12-29T06:48:14.914Z,58.93
2022-12-29T06:50:44.352Z,58.97
2022-12-29T06:53:12.708Z,59.12
2022-12-29T06:55:41.180Z,58.99
2022-12-29T06:58:09.266Z,58.92
2022-12-29T07:00:37.546Z,59.00
2022-12-29T07:03:05.903Z,59.09
2022-12-29T07:05:33.999Z,59.04
2022-12-29T07:08:03.609Z,58.91
2022-12-29T07:10:31.697Z,58.66
2022-12-29T07:13:00.389Z,58.96
2022-12-29T07:15:28.807Z,59.03
2022-12-29T07:17:57.883Z,58.89
2022-12-29T07:20:27.259Z,58.98
2022-12-29T07:22:56.507Z,59.18
2022-12-29T07:25:26.856Z,59.15
2022-12-29T07:27:55.742Z,59.13
2022-12-29T07:30:25.296Z,59.21
2022-12-29T07:32:53.814Z,59.50
2022-12-29T07:35:22.145Z,59.45
2022-12-29T07:37:51.323Z,59.41
2022-12-29T07:40:19.516Z,59.27
2022-12-29T07:42:49.226Z,59.37
2022-12-29T07:45:18.333Z,59.41
2022-12-29T07:47:49.999Z,59.65
2022-12-29T07:50:18.719Z,59.80
2022-12-29T07:52:49.162Z,59.88
2022-12-29T07:55:17.968Z,60.01
2022-12-29T07:57:46.433Z,60.08
2022-12-29T08:00:17.182Z,60.30
2022-12-29T08:02:45.656Z,59.99
2022-12-29T08:05:13.956Z,60.05
2022-12-29T08:07:42.042Z,59.88
2022-12-29T08:10:10.829Z,60.02
2022-12-29T08:12:40.294Z,59.90
2022-12-29T08:15:09.870Z,59.99
2022-12-29T08:17:40.152Z,59.68
2022-12-29T08:20:09.360Z,59.75
2022-12-29T08:22:37.429Z,59.37
2022-12-29T08:25:06.306Z,59.72
2022-12-29T08:27:34.296Z,59.66
2022-12-29T08:30:02.585Z,59.14
2022-12-29T08:32:31.587Z,59.34
2022-12-29T08:35:01.574Z,59.38
2022-12-29T08:37:31.378Z,59.62
2022-12-29T08:40:01.135Z,59.42
2022-12-29T08:42:31.845Z,58.91
2022-12-29T08:45:00.344Z,59.07
2022-12-29T08:47:29.079Z,58.61
2022-12-29T08:49:57.184Z,58.86
2022-12-29T08:52:26.782Z,58.43
2022-12-29T08:54:54.749Z,58.66
2022-12-29T08:57:22.861Z,58.60
2022-12-29T08:59:52.700Z,58.15
2022-12-29T09:02:24.754Z,58.08
2022-12-29T09:04:53.567Z,58.10
2022-12-29T09:07:21.675Z,57.86
2022-12-29T09:09:51.177Z,57.95
2022-12-29T09:12:20.006Z,57.41
2022-12-29T09:14:48.063Z,57.15
2022-12-29T09:17:33.588Z,57.53
2022-12-29T09:20:02.138Z,57.18
2022-12-29T09:22:30.159Z,57.39
2022-12-29T09:24:59.525Z,57.07
2022-12-29T09:27:27.819Z,56.87
2022-12-29T09:29:56.134Z,56.64
2022-12-29T09:32:24.956Z,57.17
2022-12-29T09:34:54.842Z,57.22
2022-12-29T09:37:23.443Z,56.60
2022-12-29T09:39:54.717Z,57.00
2022-12-29T09:42:30.048Z,56.58
2022-12-29T09:45:07.325Z,56.32
2022-12-29T09:47:35.967Z,56.85
2022-12-29T09:50:11.476Z,57.27
2022-12-29T09:52:46.714Z,57.08
2022-12-29T09:55:19.559Z,56.96
2022-12-29T09:57:54.607Z,56.64
2022-12-29T10:00:25.958Z,56.61
2022-12-29T10:02:58.699Z,56.66
2022-12-29T10:05:37.197Z,56.63
2022-12-29T10:08:21.714Z,56.33
2022-12-29T10:10:56.969Z,56.34
2022-12-29T10:13:36.939Z,56.20
2022-12-29T10:16:10.875Z,56.22
2022-12-29T10:19:06.220Z,56.20
2022-12-29T10:21:47.005Z,55.36
2022-12-29T10:24:15.680Z,55.28
2022-12-29T10:26:46.118Z,56.75
2022-12-29T10:29:20.546Z,55.53
2022-12-29T10:31:52.853Z,55.24
2022-12-29T10:34:24.554Z,55.76
2022-12-29T10:36:58.217Z,54.96
2022-12-29T10:39:33.837Z,54.44
2022-12-29T10:42:12.074Z,54.46
2022-12-29T10:44:42.034Z,54.60
2022-12-29T10:47:17.415Z,54.11
2022-12-29T10:49:49.142Z,53.74
2022-12-29T10:52:21.063Z,54.70
2022-12-29T10:54:53.131Z,54.90
2022-12-29T10:57:29.064Z,54.04
2022-12-29T10:59:59.691Z,54.15
2022-12-29T11:02:49.001Z,54.70
2022-12-29T11:05:25.089Z,53.94
2022-12-29T11:08:05.004Z,53.90
2022-12-29T11:10:39.947Z,55.16
2022-12-29T11:13:15.078Z,54.51
2022-12-29T11:15:46.658Z,54.17
2022-12-29T11:18:24.463Z,54.42
2022-12-29T11:20:55.309Z,54.26
2022-12-29T11:23:28.391Z,54.82
2022-12-29T11:26:16.249Z,53.74
2022-12-29T11:28:47.085Z,52.63
2022-12-29T11:31:20.301Z,53.38
2022-12-29T11:33:49.155Z,53.35
2022-12-29T11:36:19.763Z,54.44
2022-12-29T11:38:51.054Z,53.92
2022-12-29T11:41:25.995Z,52.92
2022-12-29T11:43:55.510Z,53.02
2022-12-29T11:46:29.737Z,54.00
2022-12-29T11:49:00.665Z,53.53
2022-12-29T11:51:32.571Z,54.40
2022-12-29T11:54:04.641Z,53.12
2022-12-29T11:56:40.836Z,54.12
2022-12-29T11:59:39.979Z,53.41
2022-12-29T12:02:42.943Z,52.27
2022-12-29T12:05:43.111Z,52.34
2022-12-29T12:08:20.813Z,52.11
2022-12-29T12:10:55.490Z,53.31
2022-12-29T12:13:29.133Z,53.55
2022-12-29T12:16:04.471Z,53.20
2022-12-29T12:18:49.801Z,52.91
2022-12-29T12:21:25.534Z,52.54
2022-12-29T12:24:23.433Z,53.36
2022-12-29T12:27:00.841Z,52.65
2022-12-29T12:29:39.383Z,52.47
2022-12-29T12:32:16.864Z,53.03
2022-12-29T12:34:48.414Z,52.81
2022-12-29T12:37:31.651Z,53.66
2022-12-29T12:40:24.777Z,52.61
2022-12-29T12:43:10.067Z,53.20
2022-12-29T12:45:51.119Z,52.61
2022-12-29T12:48:39.163Z,53.24
2022-12-29T12:51:16.577Z,53.56
2022-12-29T12:54:08.219Z,53.63
2022-12-29T12:56:49.541Z,53.86
2022-12-29T12:59:32.237Z,53.67
2022-12-29T13:02:11.173Z,53.69
2022-12-29T13:05:06.359Z,54.07
2022-12-29T13:07:49.883Z,53.34
2022-12-29T13:10:42.283Z,53.02
2022-12-29T13:13:43.119Z,53.21
2022-12-29T13:16:17.723Z,53.33
2022-12-29T13:18:52.315Z,53.55
2022-12-29T13:21:33.914Z,54.52
2022-12-29T13:24:12.001Z,54.15
2022-12-29T13:26:46.209Z,53.72
2022-12-29T13:29:19.490Z,53.51
2022-12-29T13:31:54.545Z,52.90
2022-12-29T13:34:32.631Z,53.30
2022-12-29T13:37:03.762Z,53.54
2022-12-29T13:39:37.287Z,53.87
2022-12-29T13:42:06.454Z,53.52
2022-12-29T13:44:37.637Z,53.90
2022-12-29T13:47:17.294Z,53.92
2022-12-29T13:49:46.387Z,53.21
2022-12-29T13:52:22.436Z,54.55
2022-12-29T13:55:01.299Z,54.57
2022-12-29T13:57:40.408Z,53.85
2022-12-29T14:00:16.767Z,54.49
2022-12-29T14:03:11.954Z,54.32
2022-12-29T14:05:40.044Z,53.98
2022-12-29T14:08:19.024Z,55.06
2022-12-29T14:10:53.596Z,54.60
2022-12-29T14:13:27.896Z,54.68
2022-12-29T14:15:58.899Z,54.59
2022-12-29T14:18:30.180Z,54.90
2022-12-29T14:21:00.835Z,55.11
2022-12-29T14:23:37.709Z,54.75
2022-12-29T14:26:21.066Z,54.32
2022-12-29T14:28:51.116Z,53.87
2022-12-29T14:31:44.706Z,54.90
2022-12-29T14:34:41.455Z,54.01
2022-12-29T14:37:27.489Z,53.76
2022-12-29T14:40:08.759Z,54.18
2022-12-29T14:42:42.826Z,54.37
2022-12-29T14:45:29.323Z,54.55
2022-12-29T14:47:58.097Z,54.24
2022-12-29T14:50:37.357Z,55.50
2022-12-29T14:53:08.177Z,55.13
2022-12-29T14:55:42.025Z,55.18
2022-12-29T14:58:18.450Z,55.03
2022-12-29T15:00:48.051Z,54.78
2022-12-29T15:03:19.923Z,55.12
2022-12-29T15:05:52.424Z,54.62
2022-12-29T15:08:24.896Z,54.46
2022-12-29T15:10:57.615Z,54.83
2022-12-29T15:13:36.104Z,54.56
2022-12-29T15:16:05.199Z,54.41
2022-12-29T15:18:35.055Z,54.62
2022-12-29T15:21:05.585Z,54.60
2022-12-29T15:23:36.477Z,54.39
2022-12-29T15:26:06.494Z,54.73
2022-12-29T15:28:41.217Z,54.76
2022-12-29T15:31:14.516Z,54.79
2022-12-29T15:33:45.244Z,55.19
2022-12-29T15:36:16.019Z,55.66
2022-12-29T15:38:44.638Z,55.56
2022-12-29T15:41:27.320Z,55.57
2022-12-29T15:44:10.566Z,55.24
2022-12-29T15:46:39.331Z,55.70
2022-12-29T15:49:10.449Z,55.88
2022-12-29T15:51:41.150Z,55.42
2022-12-29T15:54:19.083Z,55.26
2022-12-29T15:56:47.805Z,54.51
2022-12-29T15:59:27.704Z,55.44
2022-12-29T16:01:57.959Z,54.96
2022-12-29T16:04:31.033Z,55.50
2022-12-29T16:07:00.969Z,54.84
2022-12-29T16:09:34.291Z,54.78
2022-12-29T16:12:07.688Z,54.41
2022-12-29T16:14:44.670Z,54.65
2022-12-29T16:17:20.405Z,55.02
2022-12-29T16:19:53.724Z,55.29
2022-12-29T16:22:30.585Z,54.47
2022-12-29T16:25:05.140Z,55.01
2022-12-29T16:27:37.950Z,55.40
2022-12-29T16:30:18.628Z,55.42
2022-12-29T16:32:49.015Z,54.69
2022-12-29T16:35:20.385Z,55.33
2022-12-29T16:37:49.085Z,55.63
2022-12-29T16:40:31.111Z,55.41
2022-12-29T16:43:01.630Z,54.58
2022-12-29T16:46:08.202Z,55.02
2022-12-29T16:48:48.429Z,54.27
2022-12-29T16:51:19.339Z,55.11
2022-12-29T16:53:51.981Z,54.53
2022-12-29T16:56:23.248Z,54.30
2022-12-29T16:58:55.484Z,54.78
2022-12-29T17:01:24.090Z,55.02
2022-12-29T17:03:55.866Z,54.76
2022-12-29T17:06:24.777Z,54.67
2022-12-29T17:08:53.648Z,54.92
2022-12-29T17:11:42.347Z,54.99
2022-12-29T17:14:21.884Z,54.68
2022-12-29T17:16:50.430Z,54.36
2022-12-29T17:19:22.774Z,54.98
2022-12-29T17:21:51.607Z,54.92
2022-12-29T17:24:21.392Z,55.09
2022-12-29T17:26:52.143Z,55.00
2022-12-29T17:29:27.068Z,54.76
2022-12-29T17:31:55.270Z,54.73
2022-12-29T17:34:25.390Z,55.36
2022-12-29T17:36:53.612Z,55.10
2022-12-29T17:39:21.721Z,55.29
2022-12-29T17:41:50.316Z,55.22
2022-12-29T17:44:21.078Z,55.27
2022-12-29T17:46:50.012Z,55.18
2022-12-29T17:49:19.319Z,55.11
2022-12-29T17:51:48.704Z,55.38
2022-12-29T17:54:21.240Z,54.86
2022-12-29T17:56:49.848Z,54.65
2022-12-29T17:59:19.039Z,55.02
2022-12-29T18:01:48.640Z,54.90
2022-12-29T18:04:20.000Z,54.79
2022-12-29T18:06:49.532Z,55.32
2022-12-29T18:09:18.351Z,55.36
2022-12-29T18:11:46.821Z,55.18
2022-12-29T18:14:16.504Z,55.10
2022-12-29T18:16:45.243Z,54.85
2022-12-29T18:19:13.318Z,54.82
2022-12-29T18:21:42.682Z,55.08
2022-12-29T18:24:15.581Z,55.33
2022-12-29T18:26:43.630Z,55.24
2022-12-29T18:29:11.880Z,55.16
2022-12-29T18:31:40.009Z,55.28
2022-12-29T18:34:14.837Z,55.38
2022-12-29T18:36:43.320Z,55.40
2022-12-29T18:39:13.377Z,55.63
2022-12-29T18:41:41.528Z,55.76
2022-12-29T18:44:13.937Z,55.46
2022-12-29T18:46:42.008Z,55.62
2022-12-29T18:49:10.376Z,55.73
2022-12-29T18:51:38.448Z,55.81
2022-12-29T18:54:06.597Z,55.96
2022-12-29T18:56:36.238Z,55.88
2022-12-29T18:59:04.758Z,55.83
2022-12-29T19:01:33.073Z,55.88
2022-12-29T19:04:01.675Z,55.57
2022-12-29T19:06:29.652Z,55.84
2022-12-29T19:08:57.625Z,55.89
2022-12-29T19:11:26.206Z,55.94
2022-12-29T19:13:55.719Z,55.81
2022-12-29T19:16:25.025Z,55.98
2022-12-29T19:19:08.422Z,56.07
2022-12-29T19:21:37.546Z,56.38
2022-12-29T19:24:07.307Z,56.10
2022-12-29T19:26:37.322Z,56.29
2022-12-29T19:29:09.049Z,56.28
2022-12-29T19:31:38.605Z,56.31
2022-12-29T19:34:07.022Z,56.45
2022-12-29T19:36:35.530Z,56.46
2022-12-29T19:39:03.608Z,56.14
2022-12-29T19:41:31.894Z,56.04
2022-12-29T19:43:59.969Z,56.27
2022-12-29T19:46:29.515Z,56.16
2022-12-29T19:48:59.399Z,56.65
2022-12-29T19:51:27.790Z,56.44
2022-12-29T19:53:58.435Z,56.27
2022-12-29T19:56:26.809Z,56.63
2022-12-29T19:58:54.876Z,56.51
2022-12-29T20:01:24.142Z,56.28
2022-12-29T20:03:54.091Z,56.42
2022-12-29T20:06:22.251Z,56.31
2022-12-29T20:08:50.270Z,56.01
2022-12-29T20:11:20.168Z,55.77
2022-12-29T20:13:48.556Z,55.48
2022-12-29T20:16:18.715Z,55.57
2022-12-29T20:18:47.435Z,55.61
2022-12-29T20:21:19.947Z,55.53
2022-12-29T20:23:49.049Z,55.28
2022-12-29T20:26:19.378Z,55.63
2022-12-29T20:28:47.556Z,55.52
2022-12-29T20:31:18.961Z,55.56
2022-12-29T20:33:48.020Z,55.72
2022-12-29T20:36:19.966Z,56.00
2022-12-29T20:38:49.368Z,56.24
2022-12-29T20:41:18.437Z,56.44
2022-12-29T20:43:46.502Z,56.61
2022-12-29T20:46:20.477Z,56.41
2022-12-29T20:48:50.195Z,56.79
2022-12-29T20:51:20.919Z,56.72
2022-12-29T20:53:49.889Z,57.37
2022-12-29T20:56:21.197Z,56.92
2022-12-29T20:59:25.744Z,57.13
2022-12-29T21:01:38.737Z,57.53
2022-12-29T21:04:07.372Z,57.49
2022-12-29T21:06:37.064Z,57.46
2022-12-29T21:09:06.568Z,57.55
2022-12-29T21:11:35.027Z,57.44
2022-12-29T21:14:04.210Z,57.34
2022-12-29T21:16:32.321Z,57.47
2022-12-29T21:19:00.709Z,57.12
2022-12-29T21:21:28.852Z,57.28
2022-12-29T21:24:05.380Z,57.13
2022-12-29T21:26:35.060Z,57.27
2022-12-29T21:29:04.298Z,57.04
2022-12-29T21:31:34.398Z,57.07
2022-12-29T21:34:03.914Z,57.28
2022-12-29T21:36:32.960Z,57.40
2022-12-29T21:39:04.040Z,57.49
2022-12-29T21:41:32.935Z,57.48
2022-12-29T21:44:19.005Z,57.40
2022-12-29T21:46:48.755Z,57.35
2022-12-29T21:49:17.077Z,57.41
2022-12-29T21:51:51.123Z,57.47
2022-12-29T21:54:40.540Z,57.62
2022-12-29T21:57:09.469Z,57.70
2022-12-29T21:59:55.278Z,57.87
2022-12-29T22:02:43.226Z,57.94
2022-12-29T22:05:31.404Z,57.93
2022-12-29T22:08:17.504Z,57.80
2022-12-29T22:11:06.812Z,57.60
2022-12-29T22:13:36.928Z,57.68
2022-12-29T22:16:06.627Z,57.45
2022-12-29T22:18:35.200Z,57.24
2022-12-29T22:21:05.526Z,56.85
2022-12-29T22:23:33.870Z,56.49
2022-12-29T22:26:06.075Z,56.23
2022-12-29T22:28:37.880Z,55.71
2022-12-29T22:31:06.796Z,55.81
2022-12-29T22:33:35.615Z,55.72
2022-12-29T22:36:03.692Z,55.32
2022-12-29T22:38:31.764Z,55.35
2022-12-29T22:41:01.086Z,55.70
2022-12-29T22:43:30.703Z,55.53
2022-12-29T22:46:03.457Z,55.32
2022-12-29T22:48:33.256Z,55.63
2022-12-29T22:51:01.401Z,55.50
2022-12-29T22:53:29.415Z,55.81
2022-12-29T22:56:05.921Z,55.81
2022-12-29T22:58:35.532Z,55.95
2022-12-29T23:01:05.744Z,56.10
2022-12-29T23:03:35.048Z,56.14
2022-12-29T23:06:05.607Z,55.92
2022-12-29T23:08:35.556Z,55.96
2022-12-29T23:11:04.716Z,55.81
2022-12-29T23:13:33.302Z,55.78
2022-12-29T23:16:03.087Z,55.70
2022-12-29T23:18:31.533Z,55.71
2022-12-29T23:21:00.024Z,55.65
2022-12-29T23:23:49.179Z,55.67
2022-12-29T23:26:19.202Z,55.56
2022-12-29T23:28:47.460Z,55.58
2022-12-29T23:31:17.803Z,55.65
2022-12-29T23:33:46.133Z,55.64
2022-12-29T23:36:14.498Z,55.61
2022-12-29T23:38:43.228Z,55.64
2022-12-29T23:41:12.250Z,55.73
2022-12-29T23:43:40.388Z,55.90
2022-12-29T23:46:09.881Z,56.04
2022-12-29T23:48:39.753Z,55.95
2022-12-29T23:51:08.748Z,55.93
2022-12-29T23:53:38.891Z,56.08
2022-12-29T23:56:09.662Z,55.97
2022-12-29T23:58:38.234Z,56.21
